createdAt,value
2019-02-21T00:01:25.890Z,4.40
2019-02-21T00:03:58.826Z,4.60
2019-02-21T00:06:31.785Z,4.60
2019-02-21T00:09:05.372Z,4.60
2019-02-21T00:11:38.306Z,4.70
2019-02-21T00:14:11.606Z,4.80
2019-02-21T00:16:44.534Z,4.80
2019-02-21T00:19:17.345Z,4.80
2019-02-21T00:21:57.649Z,4.80
2019-02-21T00:24:33.225Z,4.80
2019-02-21T00:27:06.112Z,4.70
2019-02-21T00:29:51.553Z,4.70
2019-02-21T00:32:25.705Z,4.60
2019-02-21T00:35:09.185Z,4.60
2019-02-21T00:37:42.045Z,4.60
2019-02-21T00:40:14.965Z,4.40
2019-02-21T00:42:47.865Z,4.40
2019-02-21T00:45:20.967Z,4.30
2019-02-21T00:47:53.750Z,4.20
2019-02-21T00:50:26.985Z,4.20
2019-02-21T00:52:59.965Z,4.20
2019-02-21T00:55:32.766Z,4.10
2019-02-21T00:58:05.565Z,4.10
2019-02-21T01:00:46.184Z,4.30
2019-02-21T01:03:13.208Z,4.20
2019-02-21T01:05:46.126Z,4.10
2019-02-21T01:08:19.368Z,4.20
2019-02-21T01:10:52.906Z,4.20
2019-02-21T01:13:25.805Z,4.10
2019-02-21T01:15:59.205Z,4.20
2019-02-21T01:18:32.369Z,4.20
2019-02-21T01:21:05.430Z,4.20
2019-02-21T01:23:38.644Z,4.30
2019-02-21T01:26:11.725Z,4.30
2019-02-21T01:28:44.705Z,4.30
2019-02-21T01:31:17.809Z,4.30
2019-02-21T01:33:50.804Z,4.30
2019-02-21T01:36:24.645Z,4.30
2019-02-21T01:38:57.693Z,4.30
2019-02-21T01:41:30.605Z,4.40
2019-02-21T01:44:04.688Z,4.40
2019-02-21T01:46:40.686Z,4.40
2019-02-21T01:49:14.804Z,4.40
2019-02-21T01:51:47.665Z,4.40
2019-02-21T01:54:20.708Z,4.40
2019-02-21T01:56:53.605Z,4.50
2019-02-21T01:59:26.704Z,4.40
2019-02-21T02:01:59.585Z,4.40
2019-02-21T02:04:32.725Z,4.50
2019-02-21T02:07:05.486Z,4.40
2019-02-21T02:09:39.365Z,4.40
2019-02-21T02:12:16.545Z,4.30
2019-02-21T02:14:49.685Z,4.20
2019-02-21T02:17:22.666Z,4.20
2019-02-21T02:19:55.645Z,4.20
2019-02-21T02:22:28.565Z,4.30
2019-02-21T02:25:01.902Z,4.20
2019-02-21T02:27:34.965Z,4.20
2019-02-21T02:30:07.987Z,4.10
2019-02-21T02:32:40.747Z,4.10
2019-02-21T02:35:13.765Z,4.10
2019-02-21T02:37:46.707Z,4.10
2019-02-21T02:40:20.007Z,3.90
2019-02-21T02:42:52.986Z,3.90
2019-02-21T02:45:26.292Z,3.80
2019-02-21T02:47:59.209Z,3.70
2019-02-21T02:50:32.397Z,3.70
2019-02-21T02:53:05.405Z,3.70
2019-02-21T02:55:38.426Z,3.80
2019-02-21T02:58:11.245Z,3.70
2019-02-21T03:00:44.009Z,3.70
2019-02-21T03:03:16.945Z,3.70
2019-02-21T03:05:49.984Z,3.70
2019-02-21T03:08:22.947Z,3.70
2019-02-21T03:10:55.865Z,3.70
2019-02-21T03:13:28.725Z,3.70
2019-02-21T03:16:01.487Z,3.80
2019-02-21T03:18:34.865Z,3.80
2019-02-21T03:21:07.666Z,3.90
2019-02-21T03:23:40.552Z,3.90
2019-02-21T03:26:13.545Z,4.00
2019-02-21T03:28:46.485Z,4.00
2019-02-21T03:31:19.908Z,4.00
2019-02-21T03:33:52.826Z,4.00
2019-02-21T03:36:25.746Z,4.00
2019-02-21T03:38:58.676Z,3.90
2019-02-21T03:41:31.783Z,4.00
2019-02-21T03:44:05.145Z,3.90
2019-02-21T03:46:38.052Z,3.90
2019-02-21T03:49:10.973Z,3.80
2019-02-21T03:51:44.067Z,3.80
2019-02-21T03:54:16.865Z,3.80
2019-02-21T03:56:52.704Z,3.70
2019-02-21T03:59:25.825Z,3.70
2019-02-21T04:02:05.438Z,3.60
2019-02-21T04:04:33.435Z,3.60
2019-02-21T04:07:06.546Z,3.50
2019-02-21T04:09:39.305Z,3.50
2019-02-21T04:12:12.226Z,3.50
2019-02-21T04:14:45.008Z,3.50
2019-02-21T04:17:18.386Z,3.50
2019-02-21T04:19:51.284Z,3.60
2019-02-21T04:22:26.429Z,3.50
2019-02-21T04:24:59.325Z,3.50
2019-02-21T04:27:32.129Z,3.60
2019-02-21T04:30:05.026Z,3.60
2019-02-21T04:32:37.905Z,3.60
2019-02-21T04:35:10.888Z,3.60
2019-02-21T04:37:45.027Z,3.60
2019-02-21T04:40:17.804Z,3.60
2019-02-21T04:42:52.945Z,3.60
2019-02-21T04:45:25.967Z,3.60
2019-02-21T04:47:58.845Z,3.60
2019-02-21T04:50:32.065Z,3.70
2019-02-21T04:53:16.107Z,3.60
2019-02-21T04:55:49.125Z,3.60
2019-02-21T04:58:22.625Z,3.60
2019-02-21T05:00:55.485Z,3.70
2019-02-21T05:03:28.526Z,3.60
2019-02-21T05:06:01.406Z,3.50
2019-02-21T05:08:34.385Z,3.50
2019-02-21T05:11:07.164Z,3.40
2019-02-21T05:13:40.105Z,3.40
2019-02-21T05:16:12.885Z,3.50
2019-02-21T05:18:46.924Z,3.40
2019-02-21T05:21:20.965Z,3.40
2019-02-21T05:23:53.965Z,3.40
2019-02-21T05:26:29.586Z,3.40
2019-02-21T05:29:03.947Z,3.30
2019-02-21T05:32:06.947Z,3.30
2019-02-21T05:34:47.545Z,3.40
2019-02-21T05:37:29.205Z,3.40
2019-02-21T05:40:07.727Z,3.30
2019-02-21T05:42:54.525Z,3.30
2019-02-21T05:45:32.251Z,3.20
2019-02-21T05:48:09.705Z,3.20
2019-02-21T05:51:00.475Z,3.30
2019-02-21T05:53:35.850Z,3.40
2019-02-21T05:56:20.606Z,3.40
2019-02-21T05:59:09.265Z,3.30
2019-02-21T06:01:46.926Z,3.30
2019-02-21T06:04:38.645Z,3.30
2019-02-21T06:07:16.086Z,3.30
2019-02-21T06:09:50.505Z,3.30
2019-02-21T06:12:33.129Z,3.40
2019-02-21T06:15:01.056Z,3.50
2019-02-21T06:17:54.048Z,3.60
2019-02-21T06:20:33.675Z,3.60
2019-02-21T06:23:08.486Z,3.70
2019-02-21T06:25:51.078Z,3.60
2019-02-21T06:28:24.507Z,3.70
2019-02-21T06:30:59.052Z,3.60
2019-02-21T06:33:32.538Z,3.60
2019-02-21T06:36:07.198Z,3.60
2019-02-21T06:38:41.263Z,3.60
2019-02-21T06:41:15.166Z,3.60
2019-02-21T06:43:49.128Z,3.60
2019-02-21T06:46:21.987Z,3.60
2019-02-21T06:48:54.953Z,3.70
2019-02-21T06:51:27.806Z,3.70
2019-02-21T06:54:01.014Z,3.70
2019-02-21T06:56:33.973Z,3.70
2019-02-21T06:59:07.025Z,3.70
2019-02-21T07:01:45.292Z,3.80
2019-02-21T07:04:18.326Z,3.80
2019-02-21T07:06:56.782Z,4.00
2019-02-21T07:09:29.406Z,4.00
2019-02-21T07:12:02.459Z,4.00
2019-02-21T07:14:37.269Z,4.00
2019-02-21T07:17:10.147Z,4.00
2019-02-21T07:19:43.985Z,4.00
2019-02-21T07:22:20.073Z,4.10
2019-02-21T07:24:54.176Z,4.10
2019-02-21T07:27:27.865Z,4.20
2019-02-21T07:30:00.967Z,4.20
2019-02-21T07:32:36.011Z,4.30
2019-02-21T07:35:09.054Z,4.50
2019-02-21T07:37:42.363Z,4.50
2019-02-21T07:40:20.054Z,4.70
2019-02-21T07:42:50.027Z,4.80
2019-02-21T07:45:22.967Z,5.00
2019-02-21T07:47:55.851Z,5.10
2019-02-21T07:50:30.747Z,5.30
2019-02-21T07:53:03.348Z,5.60
2019-02-21T07:55:38.428Z,5.70
2019-02-21T07:58:12.887Z,5.90
2019-02-21T08:00:45.866Z,6.10
2019-02-21T08:03:29.790Z,6.20
2019-02-21T08:05:54.344Z,6.30
2019-02-21T08:08:27.150Z,6.30
2019-02-21T08:11:00.147Z,6.20
2019-02-21T08:13:32.967Z,6.20
2019-02-21T08:16:06.868Z,6.30
2019-02-21T08:18:39.787Z,6.30
2019-02-21T08:21:13.807Z,6.40
2019-02-21T08:23:50.742Z,6.40
2019-02-21T08:26:23.767Z,6.40
2019-02-21T08:28:56.704Z,6.40
2019-02-21T08:31:29.787Z,6.50
2019-02-21T08:34:04.542Z,6.50
2019-02-21T08:36:38.092Z,6.60
2019-02-21T08:39:11.141Z,6.70
2019-02-21T08:41:44.232Z,6.80
2019-02-21T08:44:17.246Z,6.90
2019-02-21T08:46:50.344Z,6.90
2019-02-21T08:49:23.484Z,7.00
2019-02-21T08:51:56.388Z,7.10
2019-02-21T08:54:29.352Z,7.10
2019-02-21T08:57:03.217Z,7.30
2019-02-21T08:59:36.426Z,7.40
2019-02-21T09:07:56.628Z,8.50
2019-02-21T09:10:29.545Z,8.00
2019-02-21T09:13:02.457Z,7.90
2019-02-21T09:15:35.785Z,8.00
2019-02-21T09:18:08.745Z,8.00
2019-02-21T09:20:41.625Z,8.00
2019-02-21T09:23:15.880Z,8.00
2019-02-21T09:25:49.700Z,7.90
2019-02-21T09:28:24.565Z,7.80
2019-02-21T09:30:57.945Z,7.90
2019-02-21T09:33:30.984Z,7.90
2019-02-21T09:36:03.907Z,8.00
2019-02-21T09:38:36.671Z,8.00
2019-02-21T09:41:10.185Z,8.00
2019-02-21T09:43:43.045Z,8.00
2019-02-21T09:46:15.906Z,8.00
2019-02-21T09:48:49.082Z,8.10
2019-02-21T09:51:22.044Z,7.90
2019-02-21T09:53:54.865Z,7.80
2019-02-21T09:56:30.688Z,7.80
2019-02-21T09:59:02.299Z,7.90
2019-02-21T10:01:35.485Z,8.10
2019-02-21T10:04:08.365Z,8.10
2019-02-21T10:06:41.454Z,8.00
2019-02-21T10:09:14.425Z,8.10
2019-02-21T10:11:47.307Z,8.10
2019-02-21T10:14:21.594Z,8.20
2019-02-21T10:16:54.645Z,8.30
2019-02-21T10:19:27.526Z,8.30
2019-02-21T10:22:00.799Z,8.30
2019-02-21T10:24:33.924Z,8.30
2019-02-21T10:27:06.985Z,8.30
2019-02-21T10:29:39.950Z,8.30
2019-02-21T10:32:13.344Z,8.40
2019-02-21T10:34:46.576Z,8.50
2019-02-21T10:37:19.465Z,8.70
2019-02-21T10:39:52.358Z,8.90
2019-02-21T10:42:25.485Z,8.80
2019-02-21T10:44:59.006Z,8.80
2019-02-21T10:47:31.745Z,8.90
2019-02-21T10:50:04.584Z,8.90
2019-02-21T10:52:37.375Z,8.80
2019-02-21T10:55:10.213Z,8.70
2019-02-21T10:57:45.367Z,8.70
2019-02-21T11:00:20.565Z,8.80
2019-02-21T11:02:52.825Z,8.90
2019-02-21T11:05:25.985Z,9.10
2019-02-21T11:07:58.825Z,9.20
2019-02-21T11:10:33.325Z,9.20
2019-02-21T11:13:06.304Z,9.20
2019-02-21T11:15:41.922Z,9.40
2019-02-21T11:18:15.085Z,9.60
2019-02-21T11:20:48.084Z,9.70
2019-02-21T11:23:21.026Z,9.70
2019-02-21T11:25:54.025Z,9.30
2019-02-21T11:28:27.273Z,9.60
2019-02-21T11:31:00.253Z,9.90
2019-02-21T11:33:33.085Z,10.10
2019-02-21T11:36:05.932Z,10.30
2019-02-21T11:38:38.804Z,10.30
2019-02-21T11:41:11.806Z,10.50
2019-02-21T11:43:44.784Z,10.60
2019-02-21T11:46:17.964Z,10.70
2019-02-21T11:48:50.967Z,10.30
2019-02-21T11:51:23.945Z,10.10
2019-02-21T11:53:56.864Z,10.00
2019-02-21T11:56:30.723Z,9.90
2019-02-21T11:59:03.593Z,9.60
2019-02-21T12:01:36.408Z,9.90
2019-02-21T12:04:09.144Z,9.90
2019-02-21T12:06:42.027Z,9.70
2019-02-21T12:09:14.925Z,9.90
2019-02-21T12:11:47.904Z,9.90
2019-02-21T12:14:20.731Z,10.10
2019-02-21T12:16:54.252Z,10.40
2019-02-21T12:19:27.588Z,10.10
2019-02-21T12:22:00.525Z,10.30
2019-02-21T12:24:34.013Z,10.20
2019-02-21T12:27:06.992Z,10.30
2019-02-21T12:29:39.948Z,10.10
2019-02-21T12:32:13.076Z,10.40
2019-02-21T12:34:46.648Z,10.70
2019-02-21T12:37:19.725Z,11.00
2019-02-21T12:39:52.568Z,10.90
2019-02-21T12:42:25.480Z,10.90
2019-02-21T12:44:58.684Z,11.00
2019-02-21T12:47:31.944Z,11.10
2019-02-21T12:50:04.846Z,11.10
2019-02-21T12:52:38.246Z,11.20
2019-02-21T12:55:11.168Z,11.30
2019-02-21T12:57:44.348Z,11.00
2019-02-21T13:00:17.664Z,11.00
2019-02-21T13:02:50.667Z,11.30
2019-02-21T13:05:23.985Z,11.40
2019-02-21T13:07:57.029Z,11.40
2019-02-21T13:10:29.865Z,11.40
2019-02-21T13:13:02.804Z,11.50
2019-02-21T13:15:35.825Z,11.60
2019-02-21T13:18:15.834Z,11.40
2019-02-21T13:20:44.306Z,11.20
2019-02-21T13:23:17.985Z,11.20
2019-02-21T13:25:50.869Z,11.50
2019-02-21T13:28:23.790Z,11.20
2019-02-21T13:30:59.487Z,11.50
2019-02-21T13:33:31.673Z,11.60
2019-02-21T13:36:04.466Z,11.60
2019-02-21T13:38:37.445Z,11.40
2019-02-21T13:41:10.947Z,11.50
2019-02-21T13:43:44.186Z,11.60
2019-02-21T13:46:17.304Z,11.70
2019-02-21T13:48:50.483Z,11.70
2019-02-21T13:51:23.405Z,11.50
2019-02-21T13:53:56.535Z,11.40
2019-02-21T13:56:29.345Z,11.50
2019-02-21T13:59:02.578Z,11.60
2019-02-21T14:01:36.445Z,11.60
2019-02-21T14:04:09.385Z,11.60
2019-02-21T14:06:42.409Z,11.40
2019-02-21T14:09:15.387Z,11.10
2019-02-21T14:11:48.347Z,11.10
2019-02-21T14:14:21.874Z,10.90
2019-02-21T14:16:54.765Z,10.80
2019-02-21T14:19:27.705Z,10.90
2019-02-21T14:22:01.265Z,10.70
2019-02-21T14:24:37.137Z,10.60
2019-02-21T14:27:09.167Z,10.70
2019-02-21T14:29:42.143Z,10.60
2019-02-21T14:32:15.605Z,10.50
2019-02-21T14:34:48.584Z,10.50
2019-02-21T14:37:21.545Z,10.60
2019-02-21T14:39:54.783Z,10.80
2019-02-21T14:42:27.909Z,10.70
2019-02-21T14:45:01.277Z,10.70
2019-02-21T14:47:34.488Z,10.60
2019-02-21T14:50:07.574Z,10.50
2019-02-21T14:52:40.925Z,10.40
2019-02-21T14:55:13.906Z,10.30
2019-02-21T14:57:47.306Z,10.20
2019-02-21T15:00:20.624Z,10.20
2019-02-21T15:02:53.845Z,10.10
2019-02-21T15:05:26.845Z,9.90
2019-02-21T15:07:59.845Z,9.90
2019-02-21T15:10:32.804Z,9.80
2019-02-21T15:13:05.747Z,9.90
2019-02-21T15:15:38.532Z,10.10
2019-02-21T15:18:11.509Z,9.80
2019-02-21T15:20:44.786Z,9.60
2019-02-21T15:23:17.746Z,9.60
2019-02-21T15:25:50.785Z,9.60
2019-02-21T15:28:23.685Z,9.50
2019-02-21T15:30:56.485Z,9.30
2019-02-21T15:33:29.504Z,9.20
2019-02-21T15:36:02.368Z,9.20
2019-02-21T15:38:35.118Z,9.30
2019-02-21T15:41:08.045Z,9.20
2019-02-21T15:43:40.905Z,9.20
2019-02-21T15:46:13.704Z,9.30
2019-02-21T15:48:46.545Z,9.20
2019-02-21T15:51:19.434Z,9.20
2019-02-21T15:53:52.223Z,9.10
2019-02-21T15:56:25.168Z,9.10
2019-02-21T15:58:58.066Z,9.10
2019-02-21T16:01:30.985Z,9.00
2019-02-21T16:04:04.105Z,8.90
2019-02-21T16:06:39.297Z,8.90
2019-02-21T16:09:16.257Z,8.90
2019-02-21T16:11:46.538Z,8.80
2019-02-21T16:14:19.470Z,8.70
2019-02-21T16:16:52.630Z,8.50
2019-02-21T16:19:25.549Z,8.40
2019-02-21T16:21:58.520Z,8.20
2019-02-21T16:24:31.465Z,8.10
2019-02-21T16:27:04.384Z,8.10
2019-02-21T16:29:37.206Z,8.00
2019-02-21T16:32:10.086Z,7.90
2019-02-21T16:34:43.095Z,8.00
2019-02-21T16:37:16.045Z,8.00
2019-02-21T16:39:49.025Z,7.90
2019-02-21T16:42:22.108Z,7.90
2019-02-21T16:44:55.094Z,7.90
2019-02-21T16:47:27.984Z,7.80
2019-02-21T16:50:00.770Z,7.90
2019-02-21T16:52:33.685Z,8.00
2019-02-21T16:55:08.753Z,7.90
2019-02-21T16:57:41.165Z,7.80
2019-02-21T17:00:14.305Z,7.80
2019-02-21T17:02:47.125Z,7.80
2019-02-21T17:05:19.984Z,7.90
2019-02-21T17:07:52.851Z,7.80
2019-02-21T17:10:25.705Z,7.80
2019-02-21T17:12:58.965Z,7.90
2019-02-21T17:15:31.745Z,8.00
2019-02-21T17:18:04.650Z,8.00
2019-02-21T17:20:37.508Z,7.90
2019-02-21T17:23:10.395Z,7.90
2019-02-21T17:25:43.286Z,7.90
2019-02-21T17:28:16.271Z,7.90
2019-02-21T17:30:49.138Z,7.90
2019-02-21T17:33:22.130Z,7.90
2019-02-21T17:35:55.248Z,7.90
2019-02-21T17:38:28.089Z,8.00
2019-02-21T17:41:01.027Z,7.90
2019-02-21T17:43:33.928Z,8.00
2019-02-21T17:46:06.807Z,8.00
2019-02-21T17:48:39.824Z,8.00
2019-02-21T17:51:12.847Z,8.10
2019-02-21T17:53:45.787Z,8.20
2019-02-21T17:56:18.700Z,8.10
2019-02-21T17:58:51.567Z,8.10
2019-02-21T18:01:24.544Z,8.00
2019-02-21T18:03:57.505Z,7.90
2019-02-21T18:06:30.625Z,8.00
2019-02-21T18:09:05.404Z,8.00
2019-02-21T18:11:38.266Z,8.00
2019-02-21T18:14:11.033Z,8.00
2019-02-21T18:16:43.811Z,8.00
2019-02-21T18:19:21.668Z,8.00
2019-02-21T18:21:54.528Z,8.10
2019-02-21T18:24:27.586Z,8.00
2019-02-21T18:27:00.607Z,7.90
2019-02-21T18:29:34.384Z,7.80
2019-02-21T18:32:07.325Z,7.80
2019-02-21T18:34:40.445Z,7.80
2019-02-21T18:37:14.945Z,7.80
2019-02-21T18:39:48.247Z,7.70
2019-02-21T18:42:21.195Z,7.60
2019-02-21T18:44:54.233Z,7.60
2019-02-21T18:47:27.511Z,7.60
2019-02-21T18:50:00.533Z,7.60
2019-02-21T18:52:33.585Z,7.70
2019-02-21T18:55:06.485Z,7.60
2019-02-21T18:57:39.503Z,7.70
2019-02-21T19:00:12.455Z,7.60
2019-02-21T19:02:45.843Z,7.40
2019-02-21T19:05:18.867Z,7.20
2019-02-21T19:08:00.818Z,7.20
2019-02-21T19:10:26.505Z,7.20
2019-02-21T19:13:00.034Z,7.30
2019-02-21T19:15:32.973Z,7.20
2019-02-21T19:18:05.781Z,7.40
2019-02-21T19:20:38.777Z,7.20
2019-02-21T19:23:12.136Z,7.20
2019-02-21T19:25:44.960Z,7.30
2019-02-21T19:28:17.986Z,7.30
2019-02-21T19:30:51.187Z,7.40
2019-02-21T19:33:24.165Z,7.40
2019-02-21T19:35:57.164Z,7.30
2019-02-21T19:38:30.071Z,7.20
2019-02-21T19:41:02.985Z,7.10
2019-02-21T19:43:35.859Z,7.10
2019-02-21T19:46:09.886Z,7.10
2019-02-21T19:48:42.688Z,7.20
2019-02-21T19:51:15.810Z,7.10
2019-02-21T19:53:49.047Z,7.10
2019-02-21T19:56:22.064Z,7.10
2019-02-21T19:58:54.939Z,7.00
2019-02-21T20:01:27.816Z,7.00
2019-02-21T20:04:01.347Z,7.10
2019-02-21T20:06:35.249Z,7.10
2019-02-21T20:09:08.206Z,7.10
2019-02-21T20:11:41.048Z,7.00
2019-02-21T20:14:14.010Z,7.00
2019-02-21T20:16:47.130Z,7.00
2019-02-21T20:19:19.931Z,7.00
2019-02-21T20:21:54.527Z,7.00
2019-02-21T20:24:27.567Z,6.90
2019-02-21T20:27:00.663Z,6.90
2019-02-21T20:29:33.784Z,6.90
2019-02-21T20:32:06.712Z,7.00
2019-02-21T20:34:40.428Z,7.00
2019-02-21T20:37:13.331Z,7.00
2019-02-21T20:39:47.148Z,6.90
2019-02-21T20:42:20.227Z,7.00
2019-02-21T20:44:53.054Z,6.90
2019-02-21T20:47:26.169Z,6.80
2019-02-21T20:49:58.970Z,6.80
2019-02-21T20:52:31.817Z,6.70
2019-02-21T20:55:04.765Z,6.60
2019-02-21T20:57:37.765Z,6.60
2019-02-21T21:00:10.954Z,6.70
2019-02-21T21:02:43.776Z,6.80
2019-02-21T21:05:16.668Z,6.70
2019-02-21T21:07:50.077Z,6.80
2019-02-21T21:10:23.008Z,6.70
2019-02-21T21:12:55.827Z,6.70
2019-02-21T21:15:29.066Z,6.80
2019-02-21T21:18:02.042Z,6.70
2019-02-21T21:20:34.865Z,6.70
2019-02-21T21:23:07.830Z,6.70
2019-02-21T21:25:40.865Z,6.70
2019-02-21T21:28:13.965Z,6.80
2019-02-21T21:30:46.893Z,6.70
2019-02-21T21:33:19.847Z,6.80
2019-02-21T21:35:53.108Z,6.60
2019-02-21T21:38:26.051Z,6.60
2019-02-21T21:40:59.005Z,6.60
2019-02-21T21:43:31.847Z,6.70
2019-02-21T21:46:04.824Z,6.70
2019-02-21T21:48:37.866Z,6.60
2019-02-21T21:51:10.639Z,6.50
2019-02-21T21:53:43.590Z,6.50
2019-02-21T21:56:16.408Z,6.50
2019-02-21T21:58:49.248Z,6.60
2019-02-21T22:01:22.286Z,6.70
2019-02-21T22:03:55.314Z,6.80
2019-02-21T22:06:28.264Z,6.70
2019-02-21T22:09:04.832Z,6.80
2019-02-21T22:11:36.105Z,6.80
2019-02-21T22:14:08.986Z,6.70
2019-02-21T22:16:42.024Z,6.80
2019-02-21T22:19:14.944Z,6.90
2019-02-21T22:21:47.744Z,6.90
2019-02-21T22:24:20.685Z,6.90
2019-02-21T22:26:53.583Z,6.80
2019-02-21T22:29:26.905Z,6.80
2019-02-21T22:31:59.904Z,6.90
2019-02-21T22:34:32.885Z,7.00
2019-02-21T22:37:06.026Z,7.00
2019-02-21T22:39:38.904Z,7.00
2019-02-21T22:42:11.845Z,6.90
2019-02-21T22:44:45.245Z,7.00
2019-02-21T22:47:18.065Z,7.00
2019-02-21T22:49:51.129Z,7.20
2019-02-21T22:52:24.484Z,7.50
2019-02-21T22:55:09.054Z,7.40
2019-02-21T22:57:32.050Z,7.60
2019-02-21T23:00:05.084Z,7.60
2019-02-21T23:02:38.005Z,7.50
2019-02-21T23:05:11.245Z,7.60
2019-02-21T23:07:44.113Z,7.50
2019-02-21T23:10:17.205Z,7.60
2019-02-21T23:12:50.125Z,7.60
2019-02-21T23:15:23.205Z,7.90
2019-02-21T23:17:56.087Z,7.70
2019-02-21T23:20:28.964Z,7.60
2019-02-21T23:23:01.925Z,7.60
2019-02-21T23:25:35.345Z,7.50
2019-02-21T23:28:08.226Z,7.20
2019-02-21T23:30:41.105Z,7.20
2019-02-21T23:33:14.047Z,7.40
2019-02-21T23:35:46.947Z,7.40
2019-02-21T23:38:20.284Z,7.50
2019-02-21T23:40:53.109Z,7.50
2019-02-21T23:43:26.006Z,7.60
2019-02-21T23:45:58.965Z,7.60
2019-02-21T23:48:32.433Z,7.50
2019-02-21T23:51:05.605Z,7.40
2019-02-21T23:53:38.585Z,7.40
2019-02-21T23:56:11.646Z,7.30
2019-02-21T23:58:44.585Z,7.40
